sensor_id;sensor_type;location;lat;lon;timestamp;temperature;humidity
25450;DHT22;13371;52.080;5.624;2023-04-30T00:00:11;12.00;94.20
25450;DHT22;13371;52.080;5.624;2023-04-30T00:02:37;12.00;94.00
25450;DHT22;13371;52.080;5.624;2023-04-30T00:05:03;12.00;93.80
25450;DHT22;13371;52.080;5.624;2023-04-30T00:07:28;11.90;93.90
25450;DHT22;13371;52.080;5.624;2023-04-30T00:09:54;11.80;93.90
25450;DHT22;13371;52.080;5.624;2023-04-30T00:12:20;11.90;93.70
25450;DHT22;13371;52.080;5.624;2023-04-30T00:14:45;11.80;93.70
25450;DHT22;13371;52.080;5.624;2023-04-30T00:17:11;11.70;93.80
25450;DHT22;13371;52.080;5.624;2023-04-30T00:19:37;11.70;93.50
25450;DHT22;13371;52.080;5.624;2023-04-30T00:22:02;11.60;93.80
25450;DHT22;13371;52.080;5.624;2023-04-30T00:24:29;11.50;94.00
25450;DHT22;13371;52.080;5.624;2023-04-30T00:26:55;11.40;94.20
25450;DHT22;13371;52.080;5.624;2023-04-30T00:29:20;11.30;94.30
25450;DHT22;13371;52.080;5.624;2023-04-30T00:31:46;11.20;94.80
25450;DHT22;13371;52.080;5.624;2023-04-30T00:34:12;11.20;94.80
25450;DHT22;13371;52.080;5.624;2023-04-30T00:36:37;11.20;94.70
25450;DHT22;13371;52.080;5.624;2023-04-30T00:39:04;11.30;94.50
25450;DHT22;13371;52.080;5.624;2023-04-30T00:41:31;11.30;94.50
25450;DHT22;13371;52.080;5.624;2023-04-30T00:43:57;11.30;94.80
25450;DHT22;13371;52.080;5.624;2023-04-30T00:46:23;11.30;94.20
25450;DHT22;13371;52.080;5.624;2023-04-30T00:48:49;11.10;94.40
25450;DHT22;13371;52.080;5.624;2023-04-30T00:51:15;11.10;94.30
25450;DHT22;13371;52.080;5.624;2023-04-30T00:53:41;11.10;94.20
25450;DHT22;13371;52.080;5.624;2023-04-30T00:56:08;11.10;94.10
25450;DHT22;13371;52.080;5.624;2023-04-30T00:58:35;11.10;93.80
25450;DHT22;13371;52.080;5.624;2023-04-30T01:01:02;11.00;94.10
25450;DHT22;13371;52.080;5.624;2023-04-30T01:03:28;11.00;94.10
25450;DHT22;13371;52.080;5.624;2023-04-30T01:05:53;10.70;94.30
25450;DHT22;13371;52.080;5.624;2023-04-30T01:08:19;10.70;94.50
25450;DHT22;13371;52.080;5.624;2023-04-30T01:10:58;10.70;94.60
25450;DHT22;13371;52.080;5.624;2023-04-30T01:13:29;10.70;94.50
25450;DHT22;13371;52.080;5.624;2023-04-30T01:16:01;10.70;94.50
25450;DHT22;13371;52.080;5.624;2023-04-30T01:18:47;10.70;94.60
25450;DHT22;13371;52.080;5.624;2023-04-30T01:21:14;10.60;94.70
25450;DHT22;13371;52.080;5.624;2023-04-30T01:29:41;10.40;95.20
25450;DHT22;13371;52.080;5.624;2023-04-30T01:32:09;10.40;95.20
25450;DHT22;13371;52.080;5.624;2023-04-30T01:34:35;10.40;95.00
25450;DHT22;13371;52.080;5.624;2023-04-30T01:37:15;10.40;95.00
25450;DHT22;13371;52.080;5.624;2023-04-30T01:47:39;10.40;95.00
25450;DHT22;13371;52.080;5.624;2023-04-30T01:53:31;10.20;95.40
25450;DHT22;13371;52.080;5.624;2023-04-30T01:56:01;10.20;95.20
25450;DHT22;13371;52.080;5.624;2023-04-30T01:58:29;10.30;95.20
25450;DHT22;13371;52.080;5.624;2023-04-30T02:00:55;9.90;95.60
25450;DHT22;13371;52.080;5.624;2023-04-30T02:03:20;9.90;95.60
25450;DHT22;13371;52.080;5.624;2023-04-30T02:05:47;9.90;95.90
25450;DHT22;13371;52.080;5.624;2023-04-30T02:08:13;10.00;95.80
25450;DHT22;13371;52.080;5.624;2023-04-30T02:10:38;10.00;95.60
25450;DHT22;13371;52.080;5.624;2023-04-30T02:13:04;10.10;95.50
25450;DHT22;13371;52.080;5.624;2023-04-30T02:15:30;10.10;95.40
25450;DHT22;13371;52.080;5.624;2023-04-30T02:17:55;9.90;95.80
25450;DHT22;13371;52.080;5.624;2023-04-30T02:20:21;9.90;96.00
25450;DHT22;13371;52.080;5.624;2023-04-30T02:22:46;9.80;96.00
25450;DHT22;13371;52.080;5.624;2023-04-30T02:25:12;10.00;95.90
25450;DHT22;13371;52.080;5.624;2023-04-30T02:27:38;9.80;96.00
25450;DHT22;13371;52.080;5.624;2023-04-30T02:30:05;9.80;96.10
25450;DHT22;13371;52.080;5.624;2023-04-30T02:32:31;9.50;96.30
25450;DHT22;13371;52.080;5.624;2023-04-30T02:34:56;9.50;97.00
25450;DHT22;13371;52.080;5.624;2023-04-30T02:37:22;9.70;96.30
25450;DHT22;13371;52.080;5.624;2023-04-30T02:39:48;9.80;96.20
25450;DHT22;13371;52.080;5.624;2023-04-30T02:42:14;9.80;96.10
25450;DHT22;13371;52.080;5.624;2023-04-30T02:44:39;9.80;96.00
25450;DHT22;13371;52.080;5.624;2023-04-30T02:47:05;9.50;96.30
25450;DHT22;13371;52.080;5.624;2023-04-30T02:49:31;9.50;96.70
25450;DHT22;13371;52.080;5.624;2023-04-30T02:51:56;9.70;96.30
25450;DHT22;13371;52.080;5.624;2023-04-30T02:54:22;9.70;96.30
25450;DHT22;13371;52.080;5.624;2023-04-30T02:56:47;9.70;96.20
25450;DHT22;13371;52.080;5.624;2023-04-30T02:59:13;9.70;96.10
25450;DHT22;13371;52.080;5.624;2023-04-30T03:01:39;9.60;96.00
25450;DHT22;13371;52.080;5.624;2023-04-30T03:04:05;9.50;96.00
25450;DHT22;13371;52.080;5.624;2023-04-30T03:06:31;9.50;96.40
25450;DHT22;13371;52.080;5.624;2023-04-30T03:08:57;9.40;96.50
25450;DHT22;13371;52.080;5.624;2023-04-30T03:11:22;9.50;96.40
25450;DHT22;13371;52.080;5.624;2023-04-30T03:13:48;9.60;96.20
25450;DHT22;13371;52.080;5.624;2023-04-30T03:16:16;9.30;96.80
25450;DHT22;13371;52.080;5.624;2023-04-30T03:18:42;9.30;96.90
25450;DHT22;13371;52.080;5.624;2023-04-30T03:21:07;9.20;97.70
25450;DHT22;13371;52.080;5.624;2023-04-30T03:23:33;9.30;97.70
25450;DHT22;13371;52.080;5.624;2023-04-30T03:25:59;9.30;97.70
25450;DHT22;13371;52.080;5.624;2023-04-30T03:28:25;9.40;98.10
25450;DHT22;13371;52.080;5.624;2023-04-30T03:30:51;9.40;98.00
25450;DHT22;13371;52.080;5.624;2023-04-30T03:33:17;9.50;97.90
25450;DHT22;13371;52.080;5.624;2023-04-30T03:35:43;9.60;97.70
25450;DHT22;13371;52.080;5.624;2023-04-30T03:38:08;9.60;97.50
25450;DHT22;13371;52.080;5.624;2023-04-30T03:40:34;9.60;97.50
25450;DHT22;13371;52.080;5.624;2023-04-30T03:42:59;9.60;97.70
25450;DHT22;13371;52.080;5.624;2023-04-30T03:45:25;9.70;97.40
25450;DHT22;13371;52.080;5.624;2023-04-30T03:47:51;9.60;97.70
25450;DHT22;13371;52.080;5.624;2023-04-30T03:50:17;9.60;97.40
25450;DHT22;13371;52.080;5.624;2023-04-30T03:52:43;9.50;98.10
25450;DHT22;13371;52.080;5.624;2023-04-30T03:55:09;9.60;97.70
25450;DHT22;13371;52.080;5.624;2023-04-30T03:57:35;9.70;97.70
25450;DHT22;13371;52.080;5.624;2023-04-30T04:00:01;9.70;97.60
25450;DHT22;13371;52.080;5.624;2023-04-30T04:02:32;9.70;97.70
25450;DHT22;13371;52.080;5.624;2023-04-30T04:04:57;9.70;97.60
25450;DHT22;13371;52.080;5.624;2023-04-30T04:07:23;9.60;97.50
25450;DHT22;13371;52.080;5.624;2023-04-30T04:09:49;9.60;98.60
25450;DHT22;13371;52.080;5.624;2023-04-30T04:12:14;9.60;98.00
25450;DHT22;13371;52.080;5.624;2023-04-30T04:14:40;9.60;98.00
25450;DHT22;13371;52.080;5.624;2023-04-30T04:17:06;9.60;98.00
25450;DHT22;13371;52.080;5.624;2023-04-30T04:19:32;9.70;97.80
25450;DHT22;13371;52.080;5.624;2023-04-30T04:21:57;9.70;97.70
25450;DHT22;13371;52.080;5.624;2023-04-30T04:24:24;9.70;97.70
25450;DHT22;13371;52.080;5.624;2023-04-30T04:26:50;9.80;97.80
25450;DHT22;13371;52.080;5.624;2023-04-30T04:29:16;9.80;97.70
25450;DHT22;13371;52.080;5.624;2023-04-30T04:31:42;9.70;97.50
25450;DHT22;13371;52.080;5.624;2023-04-30T04:34:07;9.50;98.40
25450;DHT22;13371;52.080;5.624;2023-04-30T04:36:33;9.50;98.40
25450;DHT22;13371;52.080;5.624;2023-04-30T04:38:59;9.20;99.20
25450;DHT22;13371;52.080;5.624;2023-04-30T04:41:32;8.80;99.90
25450;DHT22;13371;52.080;5.624;2023-04-30T04:44:01;8.90;99.90
25450;DHT22;13371;52.080;5.624;2023-04-30T04:46:28;9.20;99.90
25450;DHT22;13371;52.080;5.624;2023-04-30T04:48:54;9.30;99.60
25450;DHT22;13371;52.080;5.624;2023-04-30T04:51:20;9.30;99.80
25450;DHT22;13371;52.080;5.624;2023-04-30T04:53:46;9.30;99.90
25450;DHT22;13371;52.080;5.624;2023-04-30T04:56:11;9.50;99.70
25450;DHT22;13371;52.080;5.624;2023-04-30T04:58:37;9.40;99.80
25450;DHT22;13371;52.080;5.624;2023-04-30T05:01:03;9.50;99.90
25450;DHT22;13371;52.080;5.624;2023-04-30T05:03:30;9.70;99.30
25450;DHT22;13371;52.080;5.624;2023-04-30T05:05:57;9.60;99.30
25450;DHT22;13371;52.080;5.624;2023-04-30T05:08:22;9.20;99.90
25450;DHT22;13371;52.080;5.624;2023-04-30T05:10:48;9.30;99.90
25450;DHT22;13371;52.080;5.624;2023-04-30T05:13:13;9.30;99.80
25450;DHT22;13371;52.080;5.624;2023-04-30T05:15:39;9.10;99.90
25450;DHT22;13371;52.080;5.624;2023-04-30T05:18:05;8.70;99.90
25450;DHT22;13371;52.080;5.624;2023-04-30T05:20:30;8.50;99.90
25450;DHT22;13371;52.080;5.624;2023-04-30T05:22:56;8.50;99.90
25450;DHT22;13371;52.080;5.624;2023-04-30T05:25:21;8.20;99.90
25450;DHT22;13371;52.080;5.624;2023-04-30T05:27:47;8.00;99.90
25450;DHT22;13371;52.080;5.624;2023-04-30T05:30:12;7.80;99.90
25450;DHT22;13371;52.080;5.624;2023-04-30T05:32:40;7.60;99.90
25450;DHT22;13371;52.080;5.624;2023-04-30T05:35:06;7.60;99.90
25450;DHT22;13371;52.080;5.624;2023-04-30T05:37:32;8.20;99.90
25450;DHT22;13371;52.080;5.624;2023-04-30T05:39:57;8.20;99.90
25450;DHT22;13371;52.080;5.624;2023-04-30T05:42:23;7.90;99.90
25450;DHT22;13371;52.080;5.624;2023-04-30T05:44:48;8.30;99.90
25450;DHT22;13371;52.080;5.624;2023-04-30T05:47:14;7.90;99.90
25450;DHT22;13371;52.080;5.624;2023-04-30T05:49:40;8.40;99.90
25450;DHT22;13371;52.080;5.624;2023-04-30T05:52:06;8.80;99.90
25450;DHT22;13371;52.080;5.624;2023-04-30T05:54:31;9.10;99.90
25450;DHT22;13371;52.080;5.624;2023-04-30T05:56:57;9.50;99.90
25450;DHT22;13371;52.080;5.624;2023-04-30T05:59:23;9.70;99.90
25450;DHT22;13371;52.080;5.624;2023-04-30T06:01:48;10.00;99.90
25450;DHT22;13371;52.080;5.624;2023-04-30T06:04:14;10.20;99.90
25450;DHT22;13371;52.080;5.624;2023-04-30T06:06:39;10.00;99.90
25450;DHT22;13371;52.080;5.624;2023-04-30T06:09:06;9.50;99.90
25450;DHT22;13371;52.080;5.624;2023-04-30T06:11:32;9.10;99.90
25450;DHT22;13371;52.080;5.624;2023-04-30T06:13:57;9.40;99.90
25450;DHT22;13371;52.080;5.624;2023-04-30T06:16:23;9.60;99.90
25450;DHT22;13371;52.080;5.624;2023-04-30T06:18:49;10.20;99.90
25450;DHT22;13371;52.080;5.624;2023-04-30T06:21:14;10.50;99.90
25450;DHT22;13371;52.080;5.624;2023-04-30T06:23:40;11.00;99.90
25450;DHT22;13371;52.080;5.624;2023-04-30T06:26:06;10.90;99.90
25450;DHT22;13371;52.080;5.624;2023-04-30T06:28:31;11.10;99.90
25450;DHT22;13371;52.080;5.624;2023-04-30T06:30:57;11.30;99.90
25450;DHT22;13371;52.080;5.624;2023-04-30T06:33:26;11.50;99.90
25450;DHT22;13371;52.080;5.624;2023-04-30T06:35:51;11.80;99.90
25450;DHT22;13371;52.080;5.624;2023-04-30T06:38:19;11.90;99.90
25450;DHT22;13371;52.080;5.624;2023-04-30T06:40:45;12.00;99.20
25450;DHT22;13371;52.080;5.624;2023-04-30T06:43:11;11.90;99.60
25450;DHT22;13371;52.080;5.624;2023-04-30T06:45:37;11.80;99.30
25450;DHT22;13371;52.080;5.624;2023-04-30T06:48:03;11.40;99.90
25450;DHT22;13371;52.080;5.624;2023-04-30T06:50:29;11.50;99.90
25450;DHT22;13371;52.080;5.624;2023-04-30T06:52:54;11.90;99.80
25450;DHT22;13371;52.080;5.624;2023-04-30T06:55:20;11.70;99.90
25450;DHT22;13371;52.080;5.624;2023-04-30T06:57:46;11.70;99.70
25450;DHT22;13371;52.080;5.624;2023-04-30T07:00:12;11.70;99.90
25450;DHT22;13371;52.080;5.624;2023-04-30T07:02:39;11.70;99.50
25450;DHT22;13371;52.080;5.624;2023-04-30T07:05:05;12.10;99.70
25450;DHT22;13371;52.080;5.624;2023-04-30T07:07:34;12.10;99.80
25450;DHT22;13371;52.080;5.624;2023-04-30T07:10:00;12.10;99.20
25450;DHT22;13371;52.080;5.624;2023-04-30T07:12:25;12.30;99.40
25450;DHT22;13371;52.080;5.624;2023-04-30T07:14:54;12.80;98.60
25450;DHT22;13371;52.080;5.624;2023-04-30T07:17:23;13.20;97.70
25450;DHT22;13371;52.080;5.624;2023-04-30T07:19:49;13.20;97.20
25450;DHT22;13371;52.080;5.624;2023-04-30T07:22:15;13.00;97.70
25450;DHT22;13371;52.080;5.624;2023-04-30T07:24:40;13.20;97.80
25450;DHT22;13371;52.080;5.624;2023-04-30T07:27:06;13.00;97.30
25450;DHT22;13371;52.080;5.624;2023-04-30T07:29:34;13.30;97.20
25450;DHT22;13371;52.080;5.624;2023-04-30T07:31:59;13.40;97.20
25450;DHT22;13371;52.080;5.624;2023-04-30T07:34:25;13.90;96.90
25450;DHT22;13371;52.080;5.624;2023-04-30T07:36:52;14.10;95.20
25450;DHT22;13371;52.080;5.624;2023-04-30T07:39:17;13.90;94.80
25450;DHT22;13371;52.080;5.624;2023-04-30T07:41:43;13.30;96.20
25450;DHT22;13371;52.080;5.624;2023-04-30T07:44:09;13.90;95.60
25450;DHT22;13371;52.080;5.624;2023-04-30T07:46:36;13.50;95.30
25450;DHT22;13371;52.080;5.624;2023-04-30T07:49:04;14.00;95.30
25450;DHT22;13371;52.080;5.624;2023-04-30T07:51:30;14.40;94.90
25450;DHT22;13371;52.080;5.624;2023-04-30T07:53:57;14.60;93.60
25450;DHT22;13371;52.080;5.624;2023-04-30T07:56:22;14.10;94.50
25450;DHT22;13371;52.080;5.624;2023-04-30T07:58:48;14.00;94.30
25450;DHT22;13371;52.080;5.624;2023-04-30T08:01:19;14.60;93.70
25450;DHT22;13371;52.080;5.624;2023-04-30T08:07:36;14.90;91.90
25450;DHT22;13371;52.080;5.624;2023-04-30T08:38:29;16.60;88.30
25450;DHT22;13371;52.080;5.624;2023-04-30T08:41:10;16.60;87.00
25450;DHT22;13371;52.080;5.624;2023-04-30T08:47:06;16.50;85.60
25450;DHT22;13371;52.080;5.624;2023-04-30T08:53:16;16.70;85.60
25450;DHT22;13371;52.080;5.624;2023-04-30T09:10:04;16.40;84.20
25450;DHT22;13371;52.080;5.624;2023-04-30T09:13:09;16.80;84.90
25450;DHT22;13371;52.080;5.624;2023-04-30T09:18:47;18.20;85.40
25450;DHT22;13371;52.080;5.624;2023-04-30T09:21:57;18.40;79.30
25450;DHT22;13371;52.080;5.624;2023-04-30T09:28:35;18.40;81.60
25450;DHT22;13371;52.080;5.624;2023-04-30T09:38:07;18.90;80.60
25450;DHT22;13371;52.080;5.624;2023-04-30T09:40:41;19.60;80.30
25450;DHT22;13371;52.080;5.624;2023-04-30T09:43:22;20.00;77.30
25450;DHT22;13371;52.080;5.624;2023-04-30T09:46:30;20.10;75.20
25450;DHT22;13371;52.080;5.624;2023-04-30T09:52:01;19.10;77.60
25450;DHT22;13371;52.080;5.624;2023-04-30T09:54:42;19.20;79.30
25450;DHT22;13371;52.080;5.624;2023-04-30T09:57:35;19.60;75.30
25450;DHT22;13371;52.080;5.624;2023-04-30T10:00:12;18.60;75.10
25450;DHT22;13371;52.080;5.624;2023-04-30T10:26:38;19.80;77.80
25450;DHT22;13371;52.080;5.624;2023-04-30T10:32:16;21.20;74.60
25450;DHT22;13371;52.080;5.624;2023-04-30T10:37:52;20.40;73.80
25450;DHT22;13371;52.080;5.624;2023-04-30T10:41:05;19.90;74.00
25450;DHT22;13371;52.080;5.624;2023-04-30T10:43:57;19.60;75.20
25450;DHT22;13371;52.080;5.624;2023-04-30T10:46:35;19.30;81.00
25450;DHT22;13371;52.080;5.624;2023-04-30T10:49:25;20.00;76.10
25450;DHT22;13371;52.080;5.624;2023-04-30T10:55:07;19.70;76.20
25450;DHT22;13371;52.080;5.624;2023-04-30T10:57:52;19.40;78.30
25450;DHT22;13371;52.080;5.624;2023-04-30T11:00:50;20.20;79.10
25450;DHT22;13371;52.080;5.624;2023-04-30T11:04:05;20.60;75.20
25450;DHT22;13371;52.080;5.624;2023-04-30T11:07:29;20.70;71.90
25450;DHT22;13371;52.080;5.624;2023-04-30T11:09:57;20.90;73.40
25450;DHT22;13371;52.080;5.624;2023-04-30T11:13:05;20.20;73.80
25450;DHT22;13371;52.080;5.624;2023-04-30T11:15:46;20.20;73.80
25450;DHT22;13371;52.080;5.624;2023-04-30T11:18:33;20.60;74.90
25450;DHT22;13371;52.080;5.624;2023-04-30T11:21:04;21.20;72.60
25450;DHT22;13371;52.080;5.624;2023-04-30T11:23:43;21.90;74.30
25450;DHT22;13371;52.080;5.624;2023-04-30T11:29:42;22.60;68.40
25450;DHT22;13371;52.080;5.624;2023-04-30T11:32:16;21.90;67.50
25450;DHT22;13371;52.080;5.624;2023-04-30T11:34:57;20.80;69.60
25450;DHT22;13371;52.080;5.624;2023-04-30T11:40:21;20.90;72.30
25450;DHT22;13371;52.080;5.624;2023-04-30T11:42:54;21.40;70.90
25450;DHT22;13371;52.080;5.624;2023-04-30T11:45:23;21.20;70.10
25450;DHT22;13371;52.080;5.624;2023-04-30T11:47:58;20.60;69.70
25450;DHT22;13371;52.080;5.624;2023-04-30T11:50:31;21.30;73.10
25450;DHT22;13371;52.080;5.624;2023-04-30T11:53:12;20.80;69.80
25450;DHT22;13371;52.080;5.624;2023-04-30T11:55:52;20.50;72.20
25450;DHT22;13371;52.080;5.624;2023-04-30T11:58:18;20.70;70.50
25450;DHT22;13371;52.080;5.624;2023-04-30T12:00:44;20.60;72.30
25450;DHT22;13371;52.080;5.624;2023-04-30T12:03:15;20.10;72.40
25450;DHT22;13371;52.080;5.624;2023-04-30T12:05:54;20.20;69.70
25450;DHT22;13371;52.080;5.624;2023-04-30T12:08:23;20.30;72.30
25450;DHT22;13371;52.080;5.624;2023-04-30T12:10:49;20.50;71.00
25450;DHT22;13371;52.080;5.624;2023-04-30T12:13:15;20.50;69.30
25450;DHT22;13371;52.080;5.624;2023-04-30T12:15:41;20.30;71.80
25450;DHT22;13371;52.080;5.624;2023-04-30T12:18:17;20.20;71.80
25450;DHT22;13371;52.080;5.624;2023-04-30T12:20:51;20.20;70.20
25450;DHT22;13371;52.080;5.624;2023-04-30T12:23:19;20.40;72.00
25450;DHT22;13371;52.080;5.624;2023-04-30T12:25:48;20.30;73.00
25450;DHT22;13371;52.080;5.624;2023-04-30T12:28:13;20.10;72.60
25450;DHT22;13371;52.080;5.624;2023-04-30T12:30:41;20.30;74.00
25450;DHT22;13371;52.080;5.624;2023-04-30T12:33:09;20.40;72.80
25450;DHT22;13371;52.080;5.624;2023-04-30T12:35:42;20.00;70.80
25450;DHT22;13371;52.080;5.624;2023-04-30T12:38:08;20.30;71.00
25450;DHT22;13371;52.080;5.624;2023-04-30T12:40:36;20.30;71.70
25450;DHT22;13371;52.080;5.624;2023-04-30T12:43:07;20.30;72.20
25450;DHT22;13371;52.080;5.624;2023-04-30T12:45:53;20.40;71.70
25450;DHT22;13371;52.080;5.624;2023-04-30T12:48:21;20.80;71.40
25450;DHT22;13371;52.080;5.624;2023-04-30T12:50:58;20.40;70.20
25450;DHT22;13371;52.080;5.624;2023-04-30T12:53:26;20.40;70.80
25450;DHT22;13371;52.080;5.624;2023-04-30T12:56:12;21.10;71.30
25450;DHT22;13371;52.080;5.624;2023-04-30T12:58:45;21.70;68.60
25450;DHT22;13371;52.080;5.624;2023-04-30T13:01:19;21.70;68.90
25450;DHT22;13371;52.080;5.624;2023-04-30T13:03:52;22.30;65.90
25450;DHT22;13371;52.080;5.624;2023-04-30T13:06:19;21.20;66.70
25450;DHT22;13371;52.080;5.624;2023-04-30T13:12:01;21.20;66.80
25450;DHT22;13371;52.080;5.624;2023-04-30T13:14:29;20.90;69.10
25450;DHT22;13371;52.080;5.624;2023-04-30T13:17:08;20.20;68.20
25450;DHT22;13371;52.080;5.624;2023-04-30T13:19:39;20.50;68.10
25450;DHT22;13371;52.080;5.624;2023-04-30T13:22:08;21.10;66.70
25450;DHT22;13371;52.080;5.624;2023-04-30T13:24:52;21.20;66.50
25450;DHT22;13371;52.080;5.624;2023-04-30T13:27:17;20.60;67.10
25450;DHT22;13371;52.080;5.624;2023-04-30T13:29:43;21.00;67.70
25450;DHT22;13371;52.080;5.624;2023-04-30T13:32:09;20.90;67.40
25450;DHT22;13371;52.080;5.624;2023-04-30T13:34:35;20.80;65.50
25450;DHT22;13371;52.080;5.624;2023-04-30T13:37:06;21.10;66.30
25450;DHT22;13371;52.080;5.624;2023-04-30T13:39:34;21.30;65.90
25450;DHT22;13371;52.080;5.624;2023-04-30T13:42:02;21.60;65.40
25450;DHT22;13371;52.080;5.624;2023-04-30T13:44:28;21.50;66.20
25450;DHT22;13371;52.080;5.624;2023-04-30T13:46:57;21.00;66.00
25450;DHT22;13371;52.080;5.624;2023-04-30T13:49:22;20.80;68.80
25450;DHT22;13371;52.080;5.624;2023-04-30T13:51:48;20.90;65.80
25450;DHT22;13371;52.080;5.624;2023-04-30T13:54:14;20.90;67.30
25450;DHT22;13371;52.080;5.624;2023-04-30T13:56:40;21.30;67.40
25450;DHT22;13371;52.080;5.624;2023-04-30T13:59:05;21.30;63.80
25450;DHT22;13371;52.080;5.624;2023-04-30T14:01:34;21.40;64.90
25450;DHT22;13371;52.080;5.624;2023-04-30T14:04:00;21.70;63.80
25450;DHT22;13371;52.080;5.624;2023-04-30T14:06:26;21.60;63.90
25450;DHT22;13371;52.080;5.624;2023-04-30T14:08:53;21.90;63.40
25450;DHT22;13371;52.080;5.624;2023-04-30T14:11:20;22.00;62.90
25450;DHT22;13371;52.080;5.624;2023-04-30T14:13:46;21.90;64.00
25450;DHT22;13371;52.080;5.624;2023-04-30T14:16:11;22.20;63.80
25450;DHT22;13371;52.080;5.624;2023-04-30T14:18:37;22.60;63.60
25450;DHT22;13371;52.080;5.624;2023-04-30T14:21:03;22.20;62.90
25450;DHT22;13371;52.080;5.624;2023-04-30T14:23:31;21.80;61.20
25450;DHT22;13371;52.080;5.624;2023-04-30T14:26:00;22.10;64.10
25450;DHT22;13371;52.080;5.624;2023-04-30T14:28:26;20.90;63.80
25450;DHT22;13371;52.080;5.624;2023-04-30T14:30:52;20.90;65.30
25450;DHT22;13371;52.080;5.624;2023-04-30T14:33:17;21.10;63.80
25450;DHT22;13371;52.080;5.624;2023-04-30T14:35:43;21.10;65.90
25450;DHT22;13371;52.080;5.624;2023-04-30T14:38:14;21.40;66.70
25450;DHT22;13371;52.080;5.624;2023-04-30T14:40:40;20.80;66.40
25450;DHT22;13371;52.080;5.624;2023-04-30T14:43:05;20.50;66.90
25450;DHT22;13371;52.080;5.624;2023-04-30T14:45:32;20.80;67.00
25450;DHT22;13371;52.080;5.624;2023-04-30T14:48:00;20.80;67.80
25450;DHT22;13371;52.080;5.624;2023-04-30T14:50:26;20.90;64.50
25450;DHT22;13371;52.080;5.624;2023-04-30T14:52:52;20.60;66.80
25450;DHT22;13371;52.080;5.624;2023-04-30T14:55:17;20.70;67.60
25450;DHT22;13371;52.080;5.624;2023-04-30T14:57:43;21.10;67.20
25450;DHT22;13371;52.080;5.624;2023-04-30T15:00:09;20.50;67.90
25450;DHT22;13371;52.080;5.624;2023-04-30T15:02:36;21.00;66.20
25450;DHT22;13371;52.080;5.624;2023-04-30T15:05:03;20.50;66.20
25450;DHT22;13371;52.080;5.624;2023-04-30T15:07:29;20.40;65.30
25450;DHT22;13371;52.080;5.624;2023-04-30T15:09:55;20.30;67.30
25450;DHT22;13371;52.080;5.624;2023-04-30T15:12:21;20.60;68.10
25450;DHT22;13371;52.080;5.624;2023-04-30T15:14:47;20.20;66.70
25450;DHT22;13371;52.080;5.624;2023-04-30T15:17:13;19.90;70.20
25450;DHT22;13371;52.080;5.624;2023-04-30T15:19:38;20.00;68.90
25450;DHT22;13371;52.080;5.624;2023-04-30T15:22:05;20.30;69.20
25450;DHT22;13371;52.080;5.624;2023-04-30T15:24:31;19.70;69.30
25450;DHT22;13371;52.080;5.624;2023-04-30T15:26:57;20.10;68.90
25450;DHT22;13371;52.080;5.624;2023-04-30T15:29:23;20.50;69.80
25450;DHT22;13371;52.080;5.624;2023-04-30T15:31:49;21.00;68.10
25450;DHT22;13371;52.080;5.624;2023-04-30T15:34:20;20.40;68.70
25450;DHT22;13371;52.080;5.624;2023-04-30T15:36:46;20.50;69.90
25450;DHT22;13371;52.080;5.624;2023-04-30T15:39:12;20.10;68.60
25450;DHT22;13371;52.080;5.624;2023-04-30T15:41:38;20.30;70.90
25450;DHT22;13371;52.080;5.624;2023-04-30T15:44:03;20.50;67.90
25450;DHT22;13371;52.080;5.624;2023-04-30T15:46:29;20.70;67.90
25450;DHT22;13371;52.080;5.624;2023-04-30T15:48:55;19.80;69.30
25450;DHT22;13371;52.080;5.624;2023-04-30T15:51:21;20.00;69.00
25450;DHT22;13371;52.080;5.624;2023-04-30T15:53:47;20.00;68.40
25450;DHT22;13371;52.080;5.624;2023-04-30T15:56:15;20.00;70.00
25450;DHT22;13371;52.080;5.624;2023-04-30T15:58:42;20.50;68.10
25450;DHT22;13371;52.080;5.624;2023-04-30T16:01:08;20.60;67.80
25450;DHT22;13371;52.080;5.624;2023-04-30T16:03:37;21.10;67.40
25450;DHT22;13371;52.080;5.624;2023-04-30T16:06:03;21.00;65.10
25450;DHT22;13371;52.080;5.624;2023-04-30T16:08:28;20.30;67.60
25450;DHT22;13371;52.080;5.624;2023-04-30T16:10:54;20.50;68.10
25450;DHT22;13371;52.080;5.624;2023-04-30T16:13:20;20.70;67.90
25450;DHT22;13371;52.080;5.624;2023-04-30T16:15:57;21.20;67.50
25450;DHT22;13371;52.080;5.624;2023-04-30T16:18:22;21.20;66.90
25450;DHT22;13371;52.080;5.624;2023-04-30T16:20:51;21.20;65.10
25450;DHT22;13371;52.080;5.624;2023-04-30T16:23:17;20.80;65.40
25450;DHT22;13371;52.080;5.624;2023-04-30T16:25:42;20.10;66.00
25450;DHT22;13371;52.080;5.624;2023-04-30T16:28:08;20.40;68.30
25450;DHT22;13371;52.080;5.624;2023-04-30T16:30:33;20.40;67.50
25450;DHT22;13371;52.080;5.624;2023-04-30T16:32:59;20.80;67.90
25450;DHT22;13371;52.080;5.624;2023-04-30T16:35:25;20.90;67.40
25450;DHT22;13371;52.080;5.624;2023-04-30T16:37:52;20.80;68.60
25450;DHT22;13371;52.080;5.624;2023-04-30T16:40:18;20.90;67.50
25450;DHT22;13371;52.080;5.624;2023-04-30T16:42:43;20.70;67.10
25450;DHT22;13371;52.080;5.624;2023-04-30T16:45:09;20.70;67.60
25450;DHT22;13371;52.080;5.624;2023-04-30T16:47:45;20.90;68.00
25450;DHT22;13371;52.080;5.624;2023-04-30T16:50:15;21.40;68.20
25450;DHT22;13371;52.080;5.624;2023-04-30T16:52:44;21.50;66.10
25450;DHT22;13371;52.080;5.624;2023-04-30T16:55:12;21.40;66.50
25450;DHT22;13371;52.080;5.624;2023-04-30T16:57:38;21.20;66.20
25450;DHT22;13371;52.080;5.624;2023-04-30T17:00:04;21.10;66.40
25450;DHT22;13371;52.080;5.624;2023-04-30T17:02:30;21.10;66.40
25450;DHT22;13371;52.080;5.624;2023-04-30T17:04:56;20.90;65.70
25450;DHT22;13371;52.080;5.624;2023-04-30T17:07:21;20.50;67.90
25450;DHT22;13371;52.080;5.624;2023-04-30T17:09:48;20.50;66.30
25450;DHT22;13371;52.080;5.624;2023-04-30T17:12:14;19.70;68.80
25450;DHT22;13371;52.080;5.624;2023-04-30T17:14:40;19.60;69.60
25450;DHT22;13371;52.080;5.624;2023-04-30T17:17:06;19.60;69.60
25450;DHT22;13371;52.080;5.624;2023-04-30T17:19:32;19.50;70.50
25450;DHT22;13371;52.080;5.624;2023-04-30T17:21:58;19.20;70.40
25450;DHT22;13371;52.080;5.624;2023-04-30T17:24:23;19.30;71.00
25450;DHT22;13371;52.080;5.624;2023-04-30T17:26:49;19.20;71.50
25450;DHT22;13371;52.080;5.624;2023-04-30T17:29:18;19.90;70.50
25450;DHT22;13371;52.080;5.624;2023-04-30T17:31:45;20.10;70.10
25450;DHT22;13371;52.080;5.624;2023-04-30T17:34:11;19.60;69.90
25450;DHT22;13371;52.080;5.624;2023-04-30T17:36:37;20.00;70.70
25450;DHT22;13371;52.080;5.624;2023-04-30T17:39:03;20.40;70.40
25450;DHT22;13371;52.080;5.624;2023-04-30T17:41:30;20.00;70.10
25450;DHT22;13371;52.080;5.624;2023-04-30T17:43:56;19.60;71.30
25450;DHT22;13371;52.080;5.624;2023-04-30T17:46:22;18.80;70.70
25450;DHT22;13371;52.080;5.624;2023-04-30T17:48:47;18.80;72.10
25450;DHT22;13371;52.080;5.624;2023-04-30T17:51:13;19.00;73.10
25450;DHT22;13371;52.080;5.624;2023-04-30T17:53:39;19.20;71.30